sensor_id;sensor_type;location;lat;lon;timestamp;temperature;humidity
38995;DHT22;24769;18.712;99.000;2023-03-14T00:00:12;19.80;99.90
38995;DHT22;24769;18.712;99.000;2023-03-14T00:02:39;19.80;99.90
38995;DHT22;24769;18.712;99.000;2023-03-14T00:05:07;19.80;99.90
38995;DHT22;24769;18.712;99.000;2023-03-14T00:07:38;19.80;99.90
38995;DHT22;24769;18.712;99.000;2023-03-14T00:10:08;19.90;99.90
38995;DHT22;24769;18.712;99.000;2023-03-14T00:12:35;19.80;99.90
38995;DHT22;24769;18.712;99.000;2023-03-14T00:15:02;19.90;99.90
38995;DHT22;24769;18.712;99.000;2023-03-14T00:17:30;19.80;99.90
38995;DHT22;24769;18.712;99.000;2023-03-14T00:19:57;19.80;99.90
38995;DHT22;24769;18.712;99.000;2023-03-14T00:22:31;19.80;99.90
38995;DHT22;24769;18.712;99.000;2023-03-14T00:24:58;19.80;99.90
38995;DHT22;24769;18.712;99.000;2023-03-14T00:27:24;19.80;99.90
38995;DHT22;24769;18.712;99.000;2023-03-14T00:29:51;19.80;99.90
38995;DHT22;24769;18.712;99.000;2023-03-14T00:32:18;19.90;99.90
38995;DHT22;24769;18.712;99.000;2023-03-14T00:34:44;20.00;99.90
38995;DHT22;24769;18.712;99.000;2023-03-14T00:37:11;20.00;99.90
38995;DHT22;24769;18.712;99.000;2023-03-14T00:39:37;20.00;99.90
38995;DHT22;24769;18.712;99.000;2023-03-14T00:42:04;20.20;99.90
38995;DHT22;24769;18.712;99.000;2023-03-14T00:44:31;20.10;99.90
38995;DHT22;24769;18.712;99.000;2023-03-14T00:46:58;20.30;99.90
38995;DHT22;24769;18.712;99.000;2023-03-14T00:49:24;20.30;99.90
38995;DHT22;24769;18.712;99.000;2023-03-14T00:51:51;20.40;99.90
38995;DHT22;24769;18.712;99.000;2023-03-14T00:54:19;20.40;99.90
38995;DHT22;24769;18.712;99.000;2023-03-14T00:56:46;20.40;99.90
38995;DHT22;24769;18.712;99.000;2023-03-14T00:59:13;20.40;99.90
38995;DHT22;24769;18.712;99.000;2023-03-14T01:01:40;20.50;99.90
38995;DHT22;24769;18.712;99.000;2023-03-14T01:04:07;20.50;99.90
38995;DHT22;24769;18.712;99.000;2023-03-14T01:06:34;20.60;99.90
38995;DHT22;24769;18.712;99.000;2023-03-14T01:09:01;20.70;99.90
38995;DHT22;24769;18.712;99.000;2023-03-14T01:11:33;20.70;99.90
38995;DHT22;24769;18.712;99.000;2023-03-14T01:14:00;20.80;99.90
38995;DHT22;24769;18.712;99.000;2023-03-14T01:16:31;20.90;99.90
38995;DHT22;24769;18.712;99.000;2023-03-14T01:18:58;21.00;99.90
38995;DHT22;24769;18.712;99.000;2023-03-14T01:21:30;21.10;99.90
38995;DHT22;24769;18.712;99.000;2023-03-14T01:23:58;21.10;99.90
38995;DHT22;24769;18.712;99.000;2023-03-14T01:26:26;21.30;99.90
38995;DHT22;24769;18.712;99.000;2023-03-14T01:28:55;21.50;99.90
38995;DHT22;24769;18.712;99.000;2023-03-14T01:31:23;21.40;99.90
38995;DHT22;24769;18.712;99.000;2023-03-14T01:33:49;21.50;99.90
38995;DHT22;24769;18.712;99.000;2023-03-14T01:36:16;21.50;99.90
38995;DHT22;24769;18.712;99.000;2023-03-14T01:38:43;21.80;99.90
38995;DHT22;24769;18.712;99.000;2023-03-14T01:41:19;22.00;99.90
38995;DHT22;24769;18.712;99.000;2023-03-14T01:43:46;22.10;99.90
38995;DHT22;24769;18.712;99.000;2023-03-14T01:56:39;22.20;99.90
38995;DHT22;24769;18.712;99.000;2023-03-14T01:59:08;22.40;99.90
38995;DHT22;24769;18.712;99.000;2023-03-14T02:01:37;22.40;99.90
38995;DHT22;24769;18.712;99.000;2023-03-14T02:04:05;22.60;99.90
38995;DHT22;24769;18.712;99.000;2023-03-14T02:09:10;22.70;99.90
38995;DHT22;24769;18.712;99.000;2023-03-14T02:11:36;22.80;99.90
38995;DHT22;24769;18.712;99.000;2023-03-14T02:14:04;23.00;99.90
38995;DHT22;24769;18.712;99.000;2023-03-14T02:16:31;23.10;99.90
38995;DHT22;24769;18.712;99.000;2023-03-14T02:18:57;23.10;99.90
38995;DHT22;24769;18.712;99.000;2023-03-14T02:24:13;23.30;99.90
38995;DHT22;24769;18.712;99.000;2023-03-14T02:29:33;23.60;99.90
38995;DHT22;24769;18.712;99.000;2023-03-14T02:32:01;23.40;99.90
38995;DHT22;24769;18.712;99.000;2023-03-14T02:34:28;23.60;99.90
38995;DHT22;24769;18.712;99.000;2023-03-14T02:36:55;23.70;99.90
38995;DHT22;24769;18.712;99.000;2023-03-14T02:39:26;23.90;99.90
38995;DHT22;24769;18.712;99.000;2023-03-14T02:41:55;24.20;99.90
38995;DHT22;24769;18.712;99.000;2023-03-14T02:44:22;24.10;99.90
38995;DHT22;24769;18.712;99.000;2023-03-14T02:46:48;24.30;99.90
38995;DHT22;24769;18.712;99.000;2023-03-14T02:49:15;24.50;99.90
38995;DHT22;24769;18.712;99.000;2023-03-14T02:51:43;24.50;99.90
38995;DHT22;24769;18.712;99.000;2023-03-14T02:54:11;24.90;99.90
38995;DHT22;24769;18.712;99.000;2023-03-14T02:56:38;25.10;99.00
38995;DHT22;24769;18.712;99.000;2023-03-14T02:59:05;25.10;95.10
38995;DHT22;24769;18.712;99.000;2023-03-14T03:01:34;25.20;94.00
38995;DHT22;24769;18.712;99.000;2023-03-14T03:04:00;24.90;96.20
38995;DHT22;24769;18.712;99.000;2023-03-14T03:06:27;24.90;94.50
38995;DHT22;24769;18.712;99.000;2023-03-14T03:08:53;25.10;92.20
38995;DHT22;24769;18.712;99.000;2023-03-14T03:11:20;25.70;88.90
38995;DHT22;24769;18.712;99.000;2023-03-14T03:13:46;25.60;87.40
38995;DHT22;24769;18.712;99.000;2023-03-14T03:16:13;25.50;83.90
38995;DHT22;24769;18.712;99.000;2023-03-14T03:18:40;25.40;82.90
38995;DHT22;24769;18.712;99.000;2023-03-14T03:21:07;25.80;80.00
38995;DHT22;24769;18.712;99.000;2023-03-14T03:23:35;25.70;79.90
38995;DHT22;24769;18.712;99.000;2023-03-14T03:26:02;25.70;87.30
38995;DHT22;24769;18.712;99.000;2023-03-14T03:28:29;26.10;78.80
38995;DHT22;24769;18.712;99.000;2023-03-14T03:30:56;26.10;78.40
38995;DHT22;24769;18.712;99.000;2023-03-14T03:33:23;26.10;76.70
38995;DHT22;24769;18.712;99.000;2023-03-14T03:35:51;26.40;76.70
38995;DHT22;24769;18.712;99.000;2023-03-14T03:38:18;26.20;76.70
38995;DHT22;24769;18.712;99.000;2023-03-14T03:40:46;26.30;76.50
38995;DHT22;24769;18.712;99.000;2023-03-14T03:43:12;26.50;70.10
38995;DHT22;24769;18.712;99.000;2023-03-14T03:45:39;26.50;72.20
38995;DHT22;24769;18.712;99.000;2023-03-14T03:48:06;26.30;72.40
38995;DHT22;24769;18.712;99.000;2023-03-14T03:50:32;26.30;74.80
38995;DHT22;24769;18.712;99.000;2023-03-14T03:52:59;26.70;66.50
38995;DHT22;24769;18.712;99.000;2023-03-14T03:55:26;26.60;67.50
38995;DHT22;24769;18.712;99.000;2023-03-14T03:57:54;26.90;69.20
38995;DHT22;24769;18.712;99.000;2023-03-14T04:00:20;27.10;66.00
38995;DHT22;24769;18.712;99.000;2023-03-14T04:02:47;27.30;65.00
38995;DHT22;24769;18.712;99.000;2023-03-14T04:05:13;27.10;63.50
38995;DHT22;24769;18.712;99.000;2023-03-14T04:07:40;27.00;63.30
38995;DHT22;24769;18.712;99.000;2023-03-14T04:10:07;26.70;64.20
38995;DHT22;24769;18.712;99.000;2023-03-14T04:12:33;27.00;64.70
38995;DHT22;24769;18.712;99.000;2023-03-14T04:15:00;26.80;63.00
38995;DHT22;24769;18.712;99.000;2023-03-14T04:17:26;26.70;66.20
38995;DHT22;24769;18.712;99.000;2023-03-14T04:19:53;27.00;66.60
38995;DHT22;24769;18.712;99.000;2023-03-14T04:22:20;27.30;69.10
38995;DHT22;24769;18.712;99.000;2023-03-14T04:24:46;27.10;67.30
38995;DHT22;24769;18.712;99.000;2023-03-14T04:27:13;27.40;68.90
38995;DHT22;24769;18.712;99.000;2023-03-14T04:29:41;27.40;67.30
38995;DHT22;24769;18.712;99.000;2023-03-14T04:32:08;27.40;68.40
38995;DHT22;24769;18.712;99.000;2023-03-14T04:34:34;27.60;66.20
38995;DHT22;24769;18.712;99.000;2023-03-14T04:37:01;27.50;66.10
38995;DHT22;24769;18.712;99.000;2023-03-14T04:39:28;27.20;67.80
38995;DHT22;24769;18.712;99.000;2023-03-14T04:41:54;27.20;67.20
38995;DHT22;24769;18.712;99.000;2023-03-14T04:44:21;27.60;64.70
38995;DHT22;24769;18.712;99.000;2023-03-14T04:46:47;27.60;63.90
38995;DHT22;24769;18.712;99.000;2023-03-14T04:49:14;27.90;64.00
38995;DHT22;24769;18.712;99.000;2023-03-14T04:51:40;28.00;59.40
38995;DHT22;24769;18.712;99.000;2023-03-14T04:54:07;28.00;60.30
38995;DHT22;24769;18.712;99.000;2023-03-14T04:56:34;27.90;61.40
38995;DHT22;24769;18.712;99.000;2023-03-14T04:59:00;27.20;63.50
38995;DHT22;24769;18.712;99.000;2023-03-14T05:01:27;27.00;66.40
38995;DHT22;24769;18.712;99.000;2023-03-14T05:03:53;27.10;64.50
38995;DHT22;24769;18.712;99.000;2023-03-14T05:06:20;27.20;63.70
38995;DHT22;24769;18.712;99.000;2023-03-14T05:08:46;27.50;63.50
38995;DHT22;24769;18.712;99.000;2023-03-14T05:11:13;27.80;62.60
38995;DHT22;24769;18.712;99.000;2023-03-14T05:13:40;27.80;61.10
38995;DHT22;24769;18.712;99.000;2023-03-14T05:16:08;28.00;61.00
38995;DHT22;24769;18.712;99.000;2023-03-14T05:18:36;28.30;58.10
38995;DHT22;24769;18.712;99.000;2023-03-14T05:21:03;28.50;57.00
38995;DHT22;24769;18.712;99.000;2023-03-14T05:23:29;28.80;53.80
38995;DHT22;24769;18.712;99.000;2023-03-14T05:25:56;28.90;48.70
38995;DHT22;24769;18.712;99.000;2023-03-14T05:28:23;28.60;51.40
38995;DHT22;24769;18.712;99.000;2023-03-14T05:30:49;28.30;51.80
38995;DHT22;24769;18.712;99.000;2023-03-14T05:33:16;28.80;51.50
38995;DHT22;24769;18.712;99.000;2023-03-14T05:35:42;28.70;50.90
38995;DHT22;24769;18.712;99.000;2023-03-14T05:38:09;28.60;49.60
38995;DHT22;24769;18.712;99.000;2023-03-14T05:40:36;28.60;50.70
38995;DHT22;24769;18.712;99.000;2023-03-14T05:43:02;28.90;49.60
38995;DHT22;24769;18.712;99.000;2023-03-14T05:45:29;29.10;48.60
38995;DHT22;24769;18.712;99.000;2023-03-14T05:47:55;29.10;50.90
38995;DHT22;24769;18.712;99.000;2023-03-14T05:50:22;29.40;49.30
38995;DHT22;24769;18.712;99.000;2023-03-14T05:52:48;29.00;46.70
38995;DHT22;24769;18.712;99.000;2023-03-14T05:55:15;29.00;48.70
38995;DHT22;24769;18.712;99.000;2023-03-14T05:57:41;29.20;46.80
38995;DHT22;24769;18.712;99.000;2023-03-14T06:00:08;29.50;46.40
38995;DHT22;24769;18.712;99.000;2023-03-14T06:02:35;29.40;45.00
38995;DHT22;24769;18.712;99.000;2023-03-14T06:05:02;29.10;45.10
38995;DHT22;24769;18.712;99.000;2023-03-14T06:07:29;28.80;43.50
38995;DHT22;24769;18.712;99.000;2023-03-14T06:09:55;28.90;45.40
38995;DHT22;24769;18.712;99.000;2023-03-14T06:12:21;29.10;44.20
38995;DHT22;24769;18.712;99.000;2023-03-14T06:14:48;29.00;44.40
38995;DHT22;24769;18.712;99.000;2023-03-14T06:17:15;29.50;43.50
38995;DHT22;24769;18.712;99.000;2023-03-14T06:19:42;29.50;42.10
38995;DHT22;24769;18.712;99.000;2023-03-14T06:22:08;29.70;40.30
38995;DHT22;24769;18.712;99.000;2023-03-14T06:24:35;29.90;40.40
38995;DHT22;24769;18.712;99.000;2023-03-14T06:27:01;30.30;38.60
38995;DHT22;24769;18.712;99.000;2023-03-14T06:29:29;30.00;37.10
38995;DHT22;24769;18.712;99.000;2023-03-14T06:31:56;30.00;36.10
38995;DHT22;24769;18.712;99.000;2023-03-14T06:34:23;29.70;36.50
38995;DHT22;24769;18.712;99.000;2023-03-14T06:36:49;29.70;37.90
38995;DHT22;24769;18.712;99.000;2023-03-14T06:39:16;29.90;36.60
38995;DHT22;24769;18.712;99.000;2023-03-14T06:41:42;29.60;34.80
38995;DHT22;24769;18.712;99.000;2023-03-14T06:44:09;29.70;35.40
38995;DHT22;24769;18.712;99.000;2023-03-14T06:46:35;29.90;34.00
38995;DHT22;24769;18.712;99.000;2023-03-14T06:49:02;29.70;34.70
38995;DHT22;24769;18.712;99.000;2023-03-14T06:51:29;29.70;35.60
38995;DHT22;24769;18.712;99.000;2023-03-14T06:53:55;29.70;32.90
38995;DHT22;24769;18.712;99.000;2023-03-14T06:56:22;29.50;33.30
38995;DHT22;24769;18.712;99.000;2023-03-14T06:58:48;29.50;34.30
38995;DHT22;24769;18.712;99.000;2023-03-14T07:01:23;29.60;34.10
38995;DHT22;24769;18.712;99.000;2023-03-14T07:03:50;29.90;35.10
38995;DHT22;24769;18.712;99.000;2023-03-14T07:06:16;29.60;34.10
38995;DHT22;24769;18.712;99.000;2023-03-14T07:08:43;29.70;34.60
38995;DHT22;24769;18.712;99.000;2023-03-14T07:11:09;29.90;34.90
38995;DHT22;24769;18.712;99.000;2023-03-14T07:13:39;29.80;33.20
38995;DHT22;24769;18.712;99.000;2023-03-14T07:16:06;29.60;34.20
38995;DHT22;24769;18.712;99.000;2023-03-14T07:18:33;29.50;33.70
38995;DHT22;24769;18.712;99.000;2023-03-14T07:21:00;29.60;35.90
38995;DHT22;24769;18.712;99.000;2023-03-14T07:23:26;29.80;33.90
38995;DHT22;24769;18.712;99.000;2023-03-14T07:25:53;29.90;34.70
38995;DHT22;24769;18.712;99.000;2023-03-14T07:28:20;29.70;33.70
38995;DHT22;24769;18.712;99.000;2023-03-14T07:30:47;29.70;35.20
38995;DHT22;24769;18.712;99.000;2023-03-14T07:33:13;30.00;34.30
38995;DHT22;24769;18.712;99.000;2023-03-14T07:35:40;29.90;34.10
38995;DHT22;24769;18.712;99.000;2023-03-14T07:38:06;29.80;33.40
38995;DHT22;24769;18.712;99.000;2023-03-14T07:40:33;29.90;33.10
38995;DHT22;24769;18.712;99.000;2023-03-14T07:42:59;29.70;34.10
38995;DHT22;24769;18.712;99.000;2023-03-14T07:45:26;29.80;34.60
38995;DHT22;24769;18.712;99.000;2023-03-14T07:47:52;29.80;34.60
38995;DHT22;24769;18.712;99.000;2023-03-14T07:50:24;29.80;34.10
38995;DHT22;24769;18.712;99.000;2023-03-14T07:52:51;29.80;34.40
38995;DHT22;24769;18.712;99.000;2023-03-14T07:55:17;29.70;34.30
38995;DHT22;24769;18.712;99.000;2023-03-14T07:57:44;29.90;35.00
38995;DHT22;24769;18.712;99.000;2023-03-14T08:00:11;30.00;34.50
38995;DHT22;24769;18.712;99.000;2023-03-14T08:02:39;29.80;35.00
38995;DHT22;24769;18.712;99.000;2023-03-14T08:05:06;29.80;33.50
38995;DHT22;24769;18.712;99.000;2023-03-14T08:07:33;29.70;32.60
38995;DHT22;24769;18.712;99.000;2023-03-14T08:09:59;29.70;32.90
38995;DHT22;24769;18.712;99.000;2023-03-14T08:12:26;29.70;32.90
38995;DHT22;24769;18.712;99.000;2023-03-14T08:14:52;29.80;34.10
38995;DHT22;24769;18.712;99.000;2023-03-14T08:17:19;29.80;33.20
38995;DHT22;24769;18.712;99.000;2023-03-14T08:19:46;29.90;34.20
38995;DHT22;24769;18.712;99.000;2023-03-14T08:22:12;30.00;34.80
38995;DHT22;24769;18.712;99.000;2023-03-14T08:24:38;29.90;34.50
38995;DHT22;24769;18.712;99.000;2023-03-14T08:27:07;29.70;34.20
38995;DHT22;24769;18.712;99.000;2023-03-14T08:29:35;29.50;33.80
38995;DHT22;24769;18.712;99.000;2023-03-14T08:32:02;29.50;33.90
38995;DHT22;24769;18.712;99.000;2023-03-14T08:34:28;29.50;33.70
38995;DHT22;24769;18.712;99.000;2023-03-14T08:36:55;29.60;33.40
38995;DHT22;24769;18.712;99.000;2023-03-14T08:39:22;29.70;34.10
38995;DHT22;24769;18.712;99.000;2023-03-14T08:41:50;29.80;33.60
38995;DHT22;24769;18.712;99.000;2023-03-14T08:44:16;29.70;34.40
38995;DHT22;24769;18.712;99.000;2023-03-14T08:46:43;29.70;33.10
38995;DHT22;24769;18.712;99.000;2023-03-14T08:49:09;29.70;32.40
38995;DHT22;24769;18.712;99.000;2023-03-14T08:51:36;29.80;33.20
38995;DHT22;24769;18.712;99.000;2023-03-14T08:54:02;29.70;33.40
38995;DHT22;24769;18.712;99.000;2023-03-14T08:56:29;29.70;33.10
38995;DHT22;24769;18.712;99.000;2023-03-14T08:58:56;29.40;32.60
38995;DHT22;24769;18.712;99.000;2023-03-14T09:01:22;29.50;33.40
38995;DHT22;24769;18.712;99.000;2023-03-14T09:03:51;29.50;32.50
38995;DHT22;24769;18.712;99.000;2023-03-14T09:06:17;29.50;32.40
38995;DHT22;24769;18.712;99.000;2023-03-14T09:08:44;29.50;33.50
38995;DHT22;24769;18.712;99.000;2023-03-14T09:11:12;29.40;33.70
38995;DHT22;24769;18.712;99.000;2023-03-14T09:13:38;29.40;32.80
38995;DHT22;24769;18.712;99.000;2023-03-14T09:16:06;29.40;33.10
38995;DHT22;24769;18.712;99.000;2023-03-14T09:18:33;29.50;34.90
38995;DHT22;24769;18.712;99.000;2023-03-14T09:20:59;29.40;33.70
38995;DHT22;24769;18.712;99.000;2023-03-14T09:23:26;29.40;34.40
38995;DHT22;24769;18.712;99.000;2023-03-14T09:26:00;29.40;34.90
38995;DHT22;24769;18.712;99.000;2023-03-14T09:28:27;29.40;33.80
38995;DHT22;24769;18.712;99.000;2023-03-14T09:30:53;29.30;33.60
38995;DHT22;24769;18.712;99.000;2023-03-14T09:33:20;29.20;32.80
38995;DHT22;24769;18.712;99.000;2023-03-14T09:35:47;29.10;34.10
38995;DHT22;24769;18.712;99.000;2023-03-14T09:38:13;29.10;35.00
38995;DHT22;24769;18.712;99.000;2023-03-14T09:40:40;29.10;34.50
38995;DHT22;24769;18.712;99.000;2023-03-14T09:43:08;29.00;35.20
38995;DHT22;24769;18.712;99.000;2023-03-14T09:45:38;29.10;35.40
38995;DHT22;24769;18.712;99.000;2023-03-14T09:48:08;29.00;35.30
38995;DHT22;24769;18.712;99.000;2023-03-14T09:50:43;29.00;35.20
38995;DHT22;24769;18.712;99.000;2023-03-14T09:53:14;28.90;34.20
38995;DHT22;24769;18.712;99.000;2023-03-14T09:55:44;28.90;33.80
38995;DHT22;24769;18.712;99.000;2023-03-14T09:58:17;28.80;34.20
38995;DHT22;24769;18.712;99.000;2023-03-14T10:00:45;28.80;34.60
38995;DHT22;24769;18.712;99.000;2023-03-14T10:05:39;28.70;35.10
38995;DHT22;24769;18.712;99.000;2023-03-14T10:08:06;28.70;33.30
38995;DHT22;24769;18.712;99.000;2023-03-14T10:10:32;28.70;33.80
38995;DHT22;24769;18.712;99.000;2023-03-14T10:15:35;28.60;34.60
38995;DHT22;24769;18.712;99.000;2023-03-14T10:18:04;28.60;35.60
38995;DHT22;24769;18.712;99.000;2023-03-14T10:20:40;28.40;34.60
38995;DHT22;24769;18.712;99.000;2023-03-14T10:25:46;28.40;33.60
38995;DHT22;24769;18.712;99.000;2023-03-14T10:28:30;28.30;34.10
38995;DHT22;24769;18.712;99.000;2023-03-14T10:30:58;28.20;36.40
38995;DHT22;24769;18.712;99.000;2023-03-14T10:33:27;28.10;37.00
38995;DHT22;24769;18.712;99.000;2023-03-14T10:38:24;27.90;38.90
38995;DHT22;24769;18.712;99.000;2023-03-14T10:40:53;27.80;40.70
38995;DHT22;24769;18.712;99.000;2023-03-14T10:43:23;27.70;40.40
38995;DHT22;24769;18.712;99.000;2023-03-14T10:46:16;27.60;42.00
38995;DHT22;24769;18.712;99.000;2023-03-14T10:48:44;27.50;43.80
38995;DHT22;24769;18.712;99.000;2023-03-14T10:51:19;27.40;46.70
38995;DHT22;24769;18.712;99.000;2023-03-14T10:53:49;27.20;46.00
38995;DHT22;24769;18.712;99.000;2023-03-14T10:56:23;27.20;48.30
38995;DHT22;24769;18.712;99.000;2023-03-14T10:58:55;27.10;49.00
38995;DHT22;24769;18.712;99.000;2023-03-14T11:07:00;26.80;50.60
38995;DHT22;24769;18.712;99.000;2023-03-14T11:14:58;26.30;55.00
38995;DHT22;24769;18.712;99.000;2023-03-14T11:23:01;26.10;56.10
38995;DHT22;24769;18.712;99.000;2023-03-14T11:36:18;25.40;65.00
38995;DHT22;24769;18.712;99.000;2023-03-14T11:38:51;25.20;65.20
38995;DHT22;24769;18.712;99.000;2023-03-14T11:41:25;25.20;65.10
38995;DHT22;24769;18.712;99.000;2023-03-14T11:43:58;25.10;65.00
38995;DHT22;24769;18.712;99.000;2023-03-14T11:46:34;25.00;65.90
38995;DHT22;24769;18.712;99.000;2023-03-14T11:52:28;25.00;68.70
38995;DHT22;24769;18.712;99.000;2023-03-14T11:57:50;24.80;74.90
38995;DHT22;24769;18.712;99.000;2023-03-14T12:00:21;24.70;74.10
38995;DHT22;24769;18.712;99.000;2023-03-14T12:03:00;24.70;76.90
38995;DHT22;24769;18.712;99.000;2023-03-14T12:10:45;24.50;78.20
38995;DHT22;24769;18.712;99.000;2023-03-14T12:13:15;24.40;79.30
38995;DHT22;24769;18.712;99.000;2023-03-14T12:15:56;24.30;79.00
38995;DHT22;24769;18.712;99.000;2023-03-14T12:18:35;24.30;78.90
38995;DHT22;24769;18.712;99.000;2023-03-14T12:21:10;24.30;78.80
38995;DHT22;24769;18.712;99.000;2023-03-14T12:23:53;24.20;81.20
38995;DHT22;24769;18.712;99.000;2023-03-14T12:26:23;24.20;81.70
38995;DHT22;24769;18.712;99.000;2023-03-14T12:29:14;24.20;82.30
38995;DHT22;24769;18.712;99.000;2023-03-14T12:31:43;24.20;85.50
38995;DHT22;24769;18.712;99.000;2023-03-14T12:49:50;23.70;98.50
38995;DHT22;24769;18.712;99.000;2023-03-14T12:55:38;23.80;99.10
38995;DHT22;24769;18.712;99.000;2023-03-14T12:58:31;23.80;99.90
38995;DHT22;24769;18.712;99.000;2023-03-14T13:01:04;23.70;99.90
38995;DHT22;24769;18.712;99.000;2023-03-14T13:03:57;23.70;99.90
38995;DHT22;24769;18.712;99.000;2023-03-14T13:07:01;23.90;99.90
38995;DHT22;24769;18.712;99.000;2023-03-14T13:12:19;23.70;99.90
38995;DHT22;24769;18.712;99.000;2023-03-14T13:14:50;23.70;99.90
38995;DHT22;24769;18.712;99.000;2023-03-14T13:17:30;23.70;99.90
38995;DHT22;24769;18.712;99.000;2023-03-14T13:20:10;23.80;99.90
38995;DHT22;24769;18.712;99.000;2023-03-14T13:22:37;23.70;99.90
38995;DHT22;24769;18.712;99.000;2023-03-14T13:25:10;23.60;99.90
38995;DHT22;24769;18.712;99.000;2023-03-14T13:27:37;23.50;99.90
38995;DHT22;24769;18.712;99.000;2023-03-14T13:32:50;23.30;99.90
38995;DHT22;24769;18.712;99.000;2023-03-14T13:35:26;23.30;99.90
38995;DHT22;24769;18.712;99.000;2023-03-14T13:38:01;23.30;99.90
38995;DHT22;24769;18.712;99.000;2023-03-14T13:40:32;23.30;99.90
38995;DHT22;24769;18.712;99.000;2023-03-14T13:46:24;23.30;99.90
38995;DHT22;24769;18.712;99.000;2023-03-14T13:48:50;23.20;99.90
38995;DHT22;24769;18.712;99.000;2023-03-14T13:51:18;23.30;99.90
38995;DHT22;24769;18.712;99.000;2023-03-14T13:53:51;23.30;99.90
38995;DHT22;24769;18.712;99.000;2023-03-14T13:56:21;23.20;99.90
38995;DHT22;24769;18.712;99.000;2023-03-14T13:58:48;23.10;99.90
38995;DHT22;24769;18.712;99.000;2023-03-14T14:01:23;23.00;99.90
38995;DHT22;24769;18.712;99.000;2023-03-14T14:03:52;22.90;99.90
38995;DHT22;24769;18.712;99.000;2023-03-14T14:06:37;22.90;99.90
38995;DHT22;24769;18.712;99.000;2023-03-14T14:09:31;22.80;99.90
38995;DHT22;24769;18.712;99.000;2023-03-14T14:12:47;22.90;99.90
38995;DHT22;24769;18.712;99.000;2023-03-14T14:17:38;22.70;99.90
38995;DHT22;24769;18.712;99.000;2023-03-14T14:20:10;22.70;99.90
38995;DHT22;24769;18.712;99.000;2023-03-14T14:22:41;22.70;99.90
38995;DHT22;24769;18.712;99.000;2023-03-14T14:25:13;22.70;99.90
38995;DHT22;24769;18.712;99.000;2023-03-14T14:27:47;22.60;99.90
38995;DHT22;24769;18.712;99.000;2023-03-14T14:32:44;22.50;99.90
38995;DHT22;24769;18.712;99.000;2023-03-14T14:35:26;22.50;99.90
38995;DHT22;24769;18.712;99.000;2023-03-14T14:37:53;22.50;99.90
38995;DHT22;24769;18.712;99.000;2023-03-14T14:40:25;22.50;99.90
38995;DHT22;24769;18.712;99.000;2023-03-14T14:42:52;22.40;99.90
38995;DHT22;24769;18.712;99.000;2023-03-14T14:45:22;22.30;99.90
38995;DHT22;24769;18.712;99.000;2023-03-14T14:47:52;22.30;99.90
38995;DHT22;24769;18.712;99.000;2023-03-14T14:50:29;22.30;99.90
38995;DHT22;24769;18.712;99.000;2023-03-14T14:52:58;22.30;99.90
38995;DHT22;24769;18.712;99.000;2023-03-14T14:55:33;22.30;99.90
38995;DHT22;24769;18.712;99.000;2023-03-14T14:58:20;22.30;99.90
38995;DHT22;24769;18.712;99.000;2023-03-14T15:03:27;22.20;99.90
38995;DHT22;24769;18.712;99.000;2023-03-14T15:05:55;22.20;99.90
38995;DHT22;24769;18.712;99.000;2023-03-14T15:08:23;22.20;99.90
38995;DHT22;24769;18.712;99.000;2023-03-14T15:10:50;22.10;99.90
38995;DHT22;24769;18.712;99.000;2023-03-14T15:13:17;22.10;99.90
38995;DHT22;24769;18.712;99.000;2023-03-14T15:15:44;22.00;99.90
38995;DHT22;24769;18.712;99.000;2023-03-14T15:18:18;22.00;99.90
38995;DHT22;24769;18.712;99.000;2023-03-14T15:20:45;22.00;99.90
38995;DHT22;24769;18.712;99.000;2023-03-14T15:23:17;22.00;99.90
38995;DHT22;24769;18.712;99.000;2023-03-14T15:25:44;22.00;99.90
38995;DHT22;24769;18.712;99.000;2023-03-14T15:28:20;22.00;99.90
38995;DHT22;24769;18.712;99.000;2023-03-14T15:30:57;22.10;99.90
38995;DHT22;24769;18.712;99.000;2023-03-14T15:33:25;22.30;99.90
38995;DHT22;24769;18.712;99.000;2023-03-14T15:35:52;22.30;99.90
38995;DHT22;24769;18.712;99.000;2023-03-14T15:38:21;22.40;99.90
38995;DHT22;24769;18.712;99.000;2023-03-14T15:40:50;22.30;99.90
38995;DHT22;24769;18.712;99.000;2023-03-14T15:43:17;22.30;99.90
38995;DHT22;24769;18.712;99.000;2023-03-14T15:45:44;22.30;99.90
38995;DHT22;24769;18.712;99.000;2023-03-14T15:48:19;22.30;99.90
38995;DHT22;24769;18.712;99.000;2023-03-14T15:50:47;22.30;99.90
38995;DHT22;24769;18.712;99.000;2023-03-14T15:53:14;22.20;99.90
38995;DHT22;24769;18.712;99.000;2023-03-14T15:55:40;22.10;99.90
38995;DHT22;24769;18.712;99.000;2023-03-14T15:58:15;22.10;99.90
38995;DHT22;24769;18.712;99.000;2023-03-14T16:00:42;22.00;99.90
38995;DHT22;24769;18.712;99.000;2023-03-14T16:03:08;21.90;99.90
38995;DHT22;24769;18.712;99.000;2023-03-14T16:05:37;21.90;99.90
38995;DHT22;24769;18.712;99.000;2023-03-14T16:08:03;22.00;99.90
38995;DHT22;24769;18.712;99.000;2023-03-14T16:10:31;22.00;99.90
38995;DHT22;24769;18.712;99.000;2023-03-14T16:12:58;22.00;99.90
38995;DHT22;24769;18.712;99.000;2023-03-14T16:15:25;22.10;99.90
38995;DHT22;24769;18.712;99.000;2023-03-14T16:17:55;22.00;99.90
38995;DHT22;24769;18.712;99.000;2023-03-14T16:20:22;22.00;99.90
38995;DHT22;24769;18.712;99.000;2023-03-14T16:22:49;21.90;99.90
38995;DHT22;24769;18.712;99.000;2023-03-14T16:25:16;21.80;99.90
38995;DHT22;24769;18.712;99.000;2023-03-14T16:27:43;21.90;99.90
38995;DHT22;24769;18.712;99.000;2023-03-14T16:30:11;22.00;99.90
38995;DHT22;24769;18.712;99.000;2023-03-14T16:32:39;22.00;99.90
38995;DHT22;24769;18.712;99.000;2023-03-14T16:35:05;21.90;99.90
38995;DHT22;24769;18.712;99.000;2023-03-14T16:37:32;22.00;99.90
38995;DHT22;24769;18.712;99.000;2023-03-14T16:39:59;22.20;99.90
38995;DHT22;24769;18.712;99.000;2023-03-14T16:42:25;22.20;99.90
38995;DHT22;24769;18.712;99.000;2023-03-14T16:44:52;22.60;99.90
38995;DHT22;24769;18.712;99.000;2023-03-14T16:47:19;22.80;99.90
38995;DHT22;24769;18.712;99.000;2023-03-14T16:49:45;23.00;99.90
38995;DHT22;24769;18.712;99.000;2023-03-14T16:52:12;23.00;99.90
38995;DHT22;24769;18.712;99.000;2023-03-14T16:54:39;23.00;99.90
38995;DHT22;24769;18.712;99.000;2023-03-14T16:57:05;22.90;99.90
38995;DHT22;24769;18.712;99.000;2023-03-14T16:59:32;22.70;99.90
38995;DHT22;24769;18.712;99.000;2023-03-14T17:01:58;22.70;99.90
38995;DHT22;24769;18.712;99.000;2023-03-14T17:04:26;22.60;99.90
38995;DHT22;24769;18.712;99.000;2023-03-14T17:06:53;22.60;99.90